Time;durP1;ratioP1;P1;durP2;ratioP2;P2;SDS_P1;SDS_P2;PMS_P1;PMS_P2;Temp;Humidity;BMP_temperature;BMP_pressure;BME280_temperature;BME280_humidity;BME280_pressure;Samples;Min_cycle;Max_cycle;Signal;HPM_P1;HPM_P2
2022/05/18 00:01:24;;;;;;;0.50;0.50;;;;;;;19.79;100.00;95101.22;5114034;28;20467;-58
2022/05/18 00:03:53;;;;;;;0.50;0.40;;;;;;;19.90;100.00;95094.31;5113973;28;20415;-58
2022/05/18 00:06:22;;;;;;;0.50;0.30;;;;;;;20.08;100.00;95077.66;5113769;28;20449;-58
2022/05/18 00:08:50;;;;;;;0.40;0.30;;;;;;;19.86;100.00;95080.72;5113620;28;21089;-58
2022/05/18 00:11:21;;;;;;;0.60;0.60;;;;;;;20.01;100.00;95074.72;5112537;28;20501;-58
2022/05/18 00:13:51;;;;;;;0.50;0.40;;;;;;;20.22;100.00;95085.41;5112137;28;20959;-58
2022/05/18 00:16:23;;;;;;;0.97;0.50;;;;;;;19.19;100.00;95002.34;5113405;28;20471;-58
2022/05/18 00:18:52;;;;;;;0.40;0.30;;;;;;;19.43;100.00;94999.78;5112947;28;20443;-58
2022/05/18 00:21:20;;;;;;;0.60;0.40;;;;;;;19.75;100.00;95068.84;5113440;28;20452;-58
2022/05/18 00:23:49;;;;;;;1.07;0.83;;;;;;;19.60;100.00;95067.59;5113768;28;20455;-58
2022/05/18 00:26:17;;;;;;;0.50;0.50;;;;;;;19.73;100.00;95062.22;5112911;28;20530;-58
2022/05/18 00:28:47;;;;;;;0.40;0.33;;;;;;;19.57;100.00;95067.44;5112989;28;20485;-58
2022/05/18 00:31:18;;;;;;;0.40;0.30;;;;;;;19.78;100.00;95070.88;5112989;28;20880;-58
2022/05/18 00:33:47;;;;;;;0.40;0.40;;;;;;;19.58;100.00;95063.66;5112929;28;20943;-58
2022/05/18 00:36:16;;;;;;;0.57;0.40;;;;;;;19.32;100.00;95066.56;5113442;28;20836;-58
2022/05/18 00:38:44;;;;;;;0.70;0.70;;;;;;;18.94;100.00;95071.28;5113193;28;20449;-56
2022/05/18 00:41:13;;;;;;;0.60;0.50;;;;;;;18.98;100.00;95061.44;5112946;28;20501;-56
2022/05/18 00:43:44;;;;;;;0.50;0.43;;;;;;;18.41;100.00;95069.22;5112829;28;20443;-56
2022/05/18 00:46:15;;;;;;;1.30;0.97;;;;;;;18.19;100.00;95061.47;5112802;28;20506;-56
2022/05/18 00:48:52;;;;;;;0.53;0.53;;;;;;;18.12;100.00;95067.31;5113028;28;20451;-56
2022/05/18 00:51:25;;;;;;;2.30;0.40;;;;;;;18.24;100.00;95061.28;5113091;28;20466;-56
2022/05/18 00:53:57;;;;;;;0.50;0.30;;;;;;;18.61;100.00;95063.16;5112700;28;20477;-56
2022/05/18 00:56:33;;;;;;;0.50;0.33;;;;;;;18.61;100.00;95068.50;5112708;28;20518;-56
2022/05/18 00:59:08;;;;;;;0.50;0.40;;;;;;;19.04;100.00;95070.91;5113334;28;20443;-56
2022/05/18 01:01:39;;;;;;;0.40;0.30;;;;;;;18.88;100.00;95062.63;5118973;28;20482;-55
2022/05/18 01:04:10;;;;;;;0.60;0.50;;;;;;;18.77;100.00;95050.69;5113492;28;20447;-56
2022/05/18 01:06:44;;;;;;;0.40;0.30;;;;;;;18.75;100.00;95052.94;5112921;28;20435;-56
2022/05/18 01:09:19;;;;;;;0.43;0.30;;;;;;;18.97;100.00;95052.59;5111022;28;20503;-55
2022/05/18 01:11:47;;;;;;;0.40;0.30;;;;;;;19.07;100.00;95053.34;5112258;28;20426;-56
2022/05/18 01:14:19;;;;;;;0.50;0.40;;;;;;;18.89;100.00;95048.09;5110591;28;20482;-56
2022/05/18 01:16:50;;;;;;;0.40;0.30;;;;;;;18.16;100.00;94914.56;5112324;28;20974;-56
2022/05/18 01:19:25;;;;;;;0.60;0.40;;;;;;;17.63;100.00;94838.25;5112467;28;20484;-56
2022/05/18 01:22:07;;;;;;;0.50;0.40;;;;;;;19.12;100.00;95050.44;5112329;28;20514;-56
2022/05/18 01:24:43;;;;;;;0.50;0.30;;;;;;;19.16;100.00;95067.47;5111794;28;20882;-56
2022/05/18 01:27:12;;;;;;;0.50;0.37;;;;;;;19.13;100.00;95076.97;5111747;28;20518;-56
2022/05/18 01:29:41;;;;;;;0.50;0.30;;;;;;;19.09;100.00;95068.00;5112335;28;20510;-56
2022/05/18 01:32:14;;;;;;;0.50;0.37;;;;;;;19.08;100.00;95065.63;5112269;28;20514;-56
2022/05/18 01:34:43;;;;;;;0.40;0.30;;;;;;;18.77;100.00;95071.41;5111299;28;20419;-56
2022/05/18 01:37:12;;;;;;;0.50;0.30;;;;;;;18.92;100.00;95068.16;5112517;28;20427;-56
2022/05/18 01:39:45;;;;;;;0.40;0.30;;;;;;;18.95;100.00;95067.47;5111426;28;20457;-56
2022/05/18 01:42:22;;;;;;;1.30;0.37;;;;;;;18.93;100.00;95061.66;5112003;28;20522;-56
2022/05/18 01:44:51;;;;;;;0.47;0.33;;;;;;;18.92;100.00;95055.47;5112205;28;20502;-56
2022/05/18 01:47:19;;;;;;;1.40;1.30;;;;;;;18.96;100.00;95067.16;5111212;28;20466;-56
2022/05/18 01:49:49;;;;;;;0.50;0.40;;;;;;;18.93;100.00;95064.34;5112003;28;21018;-56
2022/05/18 01:52:18;;;;;;;0.67;0.67;;;;;;;18.91;100.00;95056.63;5111760;28;20518;-56
2022/05/18 01:54:48;;;;;;;0.50;0.40;;;;;;;18.85;100.00;95060.59;5111973;28;20956;-56
2022/05/18 01:57:18;;;;;;;4.63;0.40;;;;;;;18.82;100.00;95055.13;5111967;28;20517;-56
2022/05/18 01:59:46;;;;;;;1.23;0.83;;;;;;;18.85;100.00;95051.75;5111055;28;20434;-56
2022/05/18 02:02:15;;;;;;;0.70;0.37;;;;;;;18.92;100.00;95055.47;5111986;28;20459;-55
2022/05/18 02:04:43;;;;;;;0.50;0.40;;;;;;;18.55;100.00;95058.28;5112240;28;20502;-55
2022/05/18 02:07:13;;;;;;;0.50;0.30;;;;;;;18.28;100.00;95056.81;5112134;28;20967;-56
2022/05/18 02:09:43;;;;;;;0.40;0.27;;;;;;;18.42;100.00;95058.16;5110954;28;20438;-55
2022/05/18 02:12:13;;;;;;;0.50;0.40;;;;;;;18.57;100.00;95038.06;5112133;28;20427;-56
2022/05/18 02:14:42;;;;;;;0.50;0.30;;;;;;;18.75;100.00;95042.19;5111907;28;20442;-56
2022/05/18 02:17:11;;;;;;;0.63;0.63;;;;;;;18.80;100.00;95049.25;5111058;28;20428;-55
2022/05/18 02:19:39;;;;;;;0.40;0.30;;;;;;;18.77;100.00;95056.06;5111374;28;20430;-56
2022/05/18 02:22:08;;;;;;;0.50;0.50;;;;;;;18.53;100.00;95053.25;5111863;28;20510;-55
2022/05/18 02:24:36;;;;;;;1.80;0.67;;;;;;;17.84;100.00;95057.31;5111771;28;20428;-55
2022/05/18 02:27:05;;;;;;;0.50;0.43;;;;;;;18.07;100.00;95042.56;5111739;28;20431;-56
2022/05/18 02:29:34;;;;;;;0.40;0.30;;;;;;;18.47;100.00;95046.47;5112063;28;20830;-56
2022/05/18 02:32:06;;;;;;;2.87;1.57;;;;;;;18.51;100.00;95041.25;5110543;28;20819;-56
2022/05/18 02:34:34;;;;;;;0.50;0.50;;;;;;;18.64;100.00;95041.03;5111440;28;20415;-56
2022/05/18 02:37:03;;;;;;;0.40;0.30;;;;;;;18.73;100.00;95043.63;5110489;28;20471;-56
2022/05/18 02:39:32;;;;;;;0.40;0.20;;;;;;;18.75;100.00;95042.19;5111569;28;20460;-56
2022/05/18 02:42:00;;;;;;;0.40;0.30;;;;;;;18.77;100.00;95044.56;5111698;28;20562;-56
2022/05/18 02:44:28;;;;;;;0.40;0.33;;;;;;;18.48;100.00;95045.38;5111494;28;20510;-56
2022/05/18 02:46:59;;;;;;;0.60;0.30;;;;;;;18.52;100.00;95054.34;5111753;28;20500;-56
2022/05/18 02:49:29;;;;;;;0.40;0.27;;;;;;;18.73;100.00;95060.53;5111206;28;20917;-56
2022/05/18 02:51:58;;;;;;;0.50;0.30;;;;;;;18.16;100.00;95062.09;5115112;28;20457;-56
2022/05/18 02:57:12;;;;;;;3.03;0.63;;;;;;;18.51;100.00;95058.16;5115380;28;20423;-55
2022/05/18 02:59:42;;;;;;;0.50;0.30;;;;;;;18.58;100.00;95058.41;5114394;28;20502;-56
2022/05/18 03:02:11;;;;;;;0.40;0.27;;;;;;;18.13;100.00;95066.22;5115180;28;20475;-55
2022/05/18 03:04:41;;;;;;;0.60;0.60;;;;;;;18.37;100.00;95052.97;5115214;28;20435;-55
2022/05/18 03:07:10;;;;;;;0.53;0.40;;;;;;;18.28;100.00;95003.16;5115276;28;20462;-56
2022/05/18 03:09:39;;;;;;;0.50;0.30;;;;;;;18.14;100.00;95061.63;5115733;28;20443;-56
2022/05/18 03:12:08;;;;;;;0.53;0.53;;;;;;;17.81;100.00;95061.44;5115901;28;20451;-56
2022/05/18 03:14:36;;;;;;;0.40;0.30;;;;;;;17.83;100.00;95058.44;5115136;28;20420;-56
2022/05/18 03:17:05;;;;;;;0.60;0.60;;;;;;;18.03;100.00;95060.41;5114834;28;20473;-56
2022/05/18 03:19:34;;;;;;;0.40;0.30;;;;;;;17.89;100.00;95054.47;5114762;28;20514;-55
2022/05/18 03:24:50;;;;;;;0.80;0.80;;;;;;;17.62;100.00;95059.13;5114313;28;20881;-55
2022/05/18 03:27:19;;;;;;;0.53;0.53;;;;;;;17.69;100.00;95055.94;5113918;28;20458;-55
2022/05/18 03:29:47;;;;;;;0.50;0.40;;;;;;;18.09;100.00;95059.91;5113543;28;20463;-55
2022/05/18 03:32:16;;;;;;;0.50;0.50;;;;;;;18.34;100.00;95058.22;5114484;28;20450;-55
2022/05/18 03:34:44;;;;;;;0.70;0.40;;;;;;;18.38;100.00;95054.56;5114354;28;20971;-55
2022/05/18 03:37:14;;;;;;;0.50;0.47;;;;;;;18.31;100.00;95040.88;5114789;28;20470;-55
2022/05/18 03:39:42;;;;;;;0.60;0.60;;;;;;;18.55;100.00;95052.91;5114204;28;20470;-55
2022/05/18 03:42:11;;;;;;;0.40;0.20;;;;;;;18.54;100.00;95051.34;5114258;28;20524;-55
2022/05/18 03:44:39;;;;;;;0.63;0.60;;;;;;;18.51;100.00;95052.78;5114255;27;20503;-55
2022/05/18 03:47:09;;;;;;;0.60;0.60;;;;;;;18.40;100.00;95049.66;5113497;28;20471;-56
2022/05/18 03:49:38;;;;;;;0.60;0.40;;;;;;;18.30;100.00;95071.50;5114298;28;20424;-57
2022/05/18 03:52:07;;;;;;;1.27;0.37;;;;;;;18.41;100.00;95061.19;5114182;28;20506;-56
2022/05/18 03:54:38;;;;;;;0.50;0.43;;;;;;;18.25;100.00;95047.53;5114326;28;20515;-56
2022/05/18 03:57:10;;;;;;;0.53;0.40;;;;;;;18.49;100.00;95075.69;5114362;28;20455;-56
2022/05/18 03:59:39;;;;;;;0.53;0.53;;;;;;;18.24;100.00;95015.66;5114217;28;20502;-56
2022/05/18 04:02:07;;;;;;;0.50;0.40;;;;;;;18.54;100.00;95080.88;5112845;28;20952;-56
2022/05/18 04:04:36;;;;;;;0.50;0.40;;;;;;;17.82;100.00;95073.72;5114241;28;20808;-56
2022/05/18 04:07:05;;;;;;;0.60;0.43;;;;;;;18.22;100.00;95077.69;5113879;28;20431;-56
2022/05/18 04:09:33;;;;;;;0.73;0.60;;;;;;;18.47;100.00;95076.00;5114253;28;20427;-57
2022/05/18 04:12:03;;;;;;;0.50;0.40;;;;;;;18.55;100.00;95075.16;5113919;28;20459;-56
2022/05/18 04:14:32;;;;;;;1.00;1.00;;;;;;;18.61;100.00;95071.19;5113754;28;20937;-57
2022/05/18 04:17:00;;;;;;;0.40;0.30;;;;;;;18.66;100.00;95065.63;5113925;28;20495;-56
2022/05/18 04:19:29;;;;;;;0.50;0.40;;;;;;;18.90;100.00;95075.72;5114218;28;20430;-56
2022/05/18 04:21:57;;;;;;;0.60;0.30;;;;;;;18.80;100.00;95074.22;5113567;28;21076;-57
2022/05/18 04:24:26;;;;;;;0.73;0.40;;;;;;;18.93;100.00;95069.72;5113925;28;20427;-57
2022/05/18 04:26:57;;;;;;;0.40;0.30;;;;;;;18.84;100.00;95069.78;5113465;28;20455;-57
2022/05/18 04:29:27;;;;;;;1.30;0.47;;;;;;;18.91;100.00;95072.72;5113530;28;20428;-58
2022/05/18 04:31:55;;;;;;;0.50;0.50;;;;;;;18.95;100.00;95078.22;5113424;28;20929;-58
2022/05/18 04:34:25;;;;;;;0.50;0.50;;;;;;;18.98;100.00;95075.66;5113456;28;20427;-57
2022/05/18 04:36:53;;;;;;;0.50;0.37;;;;;;;18.80;100.00;95076.91;5113441;28;20451;-57
2022/05/18 04:39:22;;;;;;;0.63;0.60;;;;;;;18.81;100.00;95075.00;5112709;28;20455;-57
2022/05/18 04:41:50;;;;;;;2.10;0.30;;;;;;;17.66;100.00;95008.34;5113254;28;20502;-58
2022/05/18 04:44:19;;;;;;;1.00;1.00;;;;;;;18.08;100.00;95079.81;5113147;28;20526;-58
2022/05/18 04:46:58;;;;;;;0.50;0.40;;;;;;;17.87;100.00;95084.28;5113405;28;20967;-58
2022/05/18 04:49:27;;;;;;;0.50;0.40;;;;;;;18.48;100.00;95080.28;5113072;28;20428;-57
2022/05/18 04:51:55;;;;;;;0.60;0.60;;;;;;;18.51;100.00;95068.09;5113063;28;20932;-57
2022/05/18 04:54:27;;;;;;;0.70;0.70;;;;;;;18.93;100.00;95073.19;5112850;28;20958;-57
2022/05/18 04:56:55;;;;;;;0.40;0.30;;;;;;;18.82;100.00;95071.22;5112958;28;20480;-57
2022/05/18 04:59:23;;;;;;;0.50;0.40;;;;;;;19.08;100.00;95076.38;5111808;28;20431;-57
2022/05/18 05:01:52;;;;;;;2.20;0.70;;;;;;;19.42;100.00;95071.56;5112996;28;20463;-57
2022/05/18 05:04:22;;;;;;;0.63;0.53;;;;;;;19.57;100.00;95068.25;5112644;28;20439;-57
2022/05/18 05:06:50;;;;;;;0.60;0.50;;;;;;;19.61;100.00;95063.75;5112772;28;20518;-56
2022/05/18 05:09:22;;;;;;;0.50;0.50;;;;;;;19.90;100.00;95059.34;5113012;28;20455;-56
2022/05/18 05:11:50;;;;;;;0.57;0.53;;;;;;;19.90;100.00;95070.09;5113106;28;20419;-58
2022/05/18 05:14:19;;;;;;;0.50;0.47;;;;;;;20.06;100.00;95060.28;5112810;28;20539;-57
2022/05/18 05:16:48;;;;;;;0.63;0.47;;;;;;;20.23;100.00;95058.19;5112624;28;20467;-58
2022/05/18 05:19:18;;;;;;;0.40;0.20;;;;;;;20.43;100.00;95071.88;5114627;28;20813;-58
2022/05/18 05:21:47;;;;;;;0.80;0.43;;;;;;;20.42;100.00;95060.31;5113856;28;20427;-56
2022/05/18 05:24:17;;;;;;;1.30;0.57;;;;;;;20.59;100.00;95059.31;5112022;28;20480;-57
2022/05/18 05:26:46;;;;;;;1.63;1.53;;;;;;;20.64;100.00;95062.56;5112416;28;20442;-57
2022/05/18 05:29:15;;;;;;;1.63;1.20;;;;;;;20.76;100.00;95049.06;5112267;28;20434;-56
2022/05/18 05:31:43;;;;;;;1.00;0.80;;;;;;;20.84;100.00;95055.44;5112348;28;20510;-57
2022/05/18 05:34:11;;;;;;;1.73;1.63;;;;;;;21.05;100.00;95064.13;5112207;28;20493;-56
2022/05/18 05:36:40;;;;;;;0.50;0.30;;;;;;;21.14;100.00;95059.44;5112126;28;20419;-57
2022/05/18 05:39:10;;;;;;;0.87;0.87;;;;;;;20.44;100.00;95071.50;5112134;28;20436;-56
2022/05/18 05:41:38;;;;;;;0.97;0.97;;;;;;;20.62;100.00;95072.84;5113038;28;20507;-56
2022/05/18 05:44:07;;;;;;;5.07;0.87;;;;;;;20.68;100.00;95073.41;5112629;28;20503;-58
2022/05/18 05:46:36;;;;;;;2.17;2.07;;;;;;;21.04;100.00;95067.19;5111705;28;20959;-57
2022/05/18 05:49:04;;;;;;;2.13;1.00;;;;;;;20.72;100.00;95068.94;5112376;28;20428;-57
2022/05/18 05:51:33;;;;;;;0.50;0.50;;;;;;;21.17;100.00;95057.97;5112526;28;20538;-56
2022/05/18 05:54:01;;;;;;;0.60;0.53;;;;;;;21.72;96.37;95071.44;5112307;28;20434;-56
2022/05/18 05:56:31;;;;;;;0.63;0.40;;;;;;;22.17;91.60;95067.59;5112519;28;20877;-57
2022/05/18 05:59:00;;;;;;;0.80;0.80;;;;;;;21.89;93.68;95073.06;5112036;28;20467;-56
2022/05/18 06:01:28;;;;;;;0.67;0.67;;;;;;;21.64;95.65;95077.78;5112472;28;20443;-56
2022/05/18 06:03:57;;;;;;;0.70;0.70;;;;;;;21.86;96.17;95077.22;5112476;28;20496;-56
2022/05/18 06:06:25;;;;;;;0.60;0.60;;;;;;;22.15;95.55;95073.34;5111899;28;20795;-56
2022/05/18 06:09:00;;;;;;;0.53;0.53;;;;;;;22.75;90.74;95081.00;5112263;28;20920;-56
2022/05/18 06:11:28;;;;;;;2.20;1.00;;;;;;;23.06;89.15;95050.41;5111946;28;20435;-55
2022/05/18 06:13:58;;;;;;;0.77;0.77;;;;;;;23.66;83.74;95078.69;5112005;28;20527;-56
2022/05/18 06:16:26;;;;;;;0.90;0.53;;;;;;;23.80;81.31;95072.78;5111713;28;20562;-56
2022/05/18 06:18:55;;;;;;;1.00;1.00;;;;;;;23.51;78.30;95079.56;5112050;28;20845;-56
2022/05/18 06:21:23;;;;;;;0.67;0.50;;;;;;;24.19;77.08;95074.25;5111668;28;20423;-56
2022/05/18 06:23:52;;;;;;;0.50;0.40;;;;;;;24.66;74.23;95073.09;5111258;28;20515;-55
2022/05/18 06:26:20;;;;;;;0.57;0.40;;;;;;;24.85;72.90;95067.59;5114516;28;20518;-55
2022/05/18 06:28:50;;;;;;;0.50;0.40;;;;;;;24.73;76.00;95070.47;5115658;28;20427;-55
2022/05/18 06:31:20;;;;;;;0.60;0.47;;;;;;;25.22;70.46;95076.66;5115375;28;20515;-55
2022/05/18 06:33:49;;;;;;;0.50;0.40;;;;;;;25.68;65.71;95080.72;5115475;28;20922;-54
2022/05/18 06:36:17;;;;;;;0.53;0.50;;;;;;;25.86;61.24;95076.28;5115385;28;20518;-54
2022/05/18 06:38:46;;;;;;;0.50;0.30;;;;;;;26.23;58.32;95080.94;5115276;28;20447;-54
2022/05/18 06:41:23;;;;;;;0.50;0.30;;;;;;;26.05;57.78;95078.03;5115388;28;20463;-54
2022/05/18 06:43:54;;;;;;;0.60;0.60;;;;;;;26.24;56.29;95023.50;5114874;28;20513;-54
2022/05/18 06:46:26;;;;;;;0.60;0.40;;;;;;;26.25;57.38;95073.19;5115226;28;20530;-55
2022/05/18 06:48:56;;;;;;;0.40;0.30;;;;;;;26.75;53.73;95068.94;5115305;28;20459;-55
2022/05/18 06:51:26;;;;;;;0.50;0.50;;;;;;;26.29;58.26;95074.78;5115133;28;21000;-53
2022/05/18 06:53:56;;;;;;;0.90;0.90;;;;;;;26.49;59.95;95067.97;5115259;27;20967;-54
2022/05/18 06:56:27;;;;;;;0.47;0.40;;;;;;;27.01;53.63;95071.47;5115156;28;20442;-54
2022/05/18 06:58:56;;;;;;;0.83;0.83;;;;;;;27.48;49.02;95059.69;5115153;28;20423;-55
2022/05/18 07:01:27;;;;;;;0.60;0.53;;;;;;;27.52;47.53;95064.00;5115120;28;20775;-55
2022/05/18 07:03:56;;;;;;;0.30;0.20;;;;;;;27.63;45.51;95058.56;5115574;28;20459;-54
2022/05/18 07:06:30;;;;;;;0.60;0.60;;;;;;;27.58;46.97;95061.66;5115002;28;20439;-55
2022/05/18 07:08:59;;;;;;;0.53;0.50;;;;;;;27.79;42.38;95056.28;5114914;28;20428;-54
2022/05/18 07:11:28;;;;;;;0.30;0.30;;;;;;;27.81;42.56;95053.97;5115166;28;20472;-55
2022/05/18 07:13:58;;;;;;;0.40;0.30;;;;;;;28.21;43.55;95061.06;5115057;28;20514;-56
2022/05/18 07:16:29;;;;;;;0.50;0.40;;;;;;;28.32;41.98;95053.69;5114354;28;20482;-56
2022/05/18 07:18:58;;;;;;;0.50;0.30;;;;;;;28.85;40.17;95046.31;5114754;28;20506;-55
2022/05/18 07:21:27;;;;;;;0.40;0.40;;;;;;;29.41;37.70;95042.69;5114509;28;20514;-56
2022/05/18 07:23:56;;;;;;;0.40;0.30;;;;;;;28.45;38.72;95037.72;5114672;28;20549;-56
2022/05/18 07:26:26;;;;;;;0.40;0.20;;;;;;;28.05;40.07;95031.47;5114873;28;20814;-56
2022/05/18 07:28:54;;;;;;;0.30;0.20;;;;;;;28.99;38.75;95039.25;5114312;28;20419;-56
2022/05/18 07:31:23;;;;;;;0.60;0.40;;;;;;;29.34;39.67;95037.25;5115659;28;20459;-56
2022/05/18 07:34:13;;;;;;;0.40;0.30;;;;;;;29.48;35.87;95039.13;5114676;28;20441;-56
2022/05/18 07:36:41;;;;;;;0.30;0.30;;;;;;;30.29;35.65;95027.75;5114486;28;20827;-56
2022/05/18 07:39:11;;;;;;;0.40;0.30;;;;;;;29.52;37.49;95027.00;5114462;28;20427;-56
2022/05/18 07:41:40;;;;;;;0.40;0.30;;;;;;;29.31;37.42;95020.88;5114217;28;20865;-56
2022/05/18 07:44:08;;;;;;;0.40;0.30;;;;;;;29.94;35.94;95022.53;5114232;28;20507;-56
2022/05/18 07:46:37;;;;;;;0.40;0.40;;;;;;;30.18;36.50;95016.91;5114364;28;20495;-56
2022/05/18 07:49:07;;;;;;;0.40;0.40;;;;;;;30.44;35.77;95014.78;5114036;28;20515;-56
2022/05/18 07:51:37;;;;;;;0.60;0.40;;;;;;;30.67;34.59;95028.66;5114200;28;20415;-56
2022/05/18 07:54:05;;;;;;;0.70;0.50;;;;;;;30.64;33.54;95023.97;5114357;28;20442;-62
2022/05/18 07:56:34;;;;;;;0.50;0.30;;;;;;;30.30;35.08;95017.59;5113839;28;20810;-64
2022/05/18 07:59:03;;;;;;;0.77;0.50;;;;;;;30.01;34.64;95028.72;5113869;28;20479;-61
2022/05/18 08:01:32;;;;;;;0.40;0.30;;;;;;;30.01;35.98;94968.59;5113904;28;20451;-60
2022/05/18 08:04:00;;;;;;;0.43;0.30;;;;;;;30.70;33.97;95008.69;5113969;28;20471;-60
2022/05/18 08:06:29;;;;;;;0.50;0.50;;;;;;;30.89;34.47;95010.84;5114100;28;20480;-60
2022/05/18 08:08:58;;;;;;;3.50;0.40;;;;;;;30.74;34.62;95009.41;5113955;28;20861;-60
2022/05/18 08:16:58;;;;;;;0.40;0.30;;;;;;;31.06;31.66;95015.41;5113205;28;20474;-60
2022/05/18 08:19:29;;;;;;;0.40;0.37;;;;;;;30.80;32.31;95005.06;5113429;28;20431;-60
2022/05/18 08:21:57;;;;;;;4.23;0.40;;;;;;;31.65;31.42;95001.44;5113501;28;20476;-60
2022/05/18 08:24:27;;;;;;;0.40;0.30;;;;;;;31.67;32.48;94999.03;5113199;28;20474;-60
2022/05/18 08:26:56;;;;;;;0.40;0.30;;;;;;;31.83;31.72;95002.72;5112303;28;20507;-60
2022/05/18 08:29:24;;;;;;;0.40;0.30;;;;;;;31.32;29.72;95011.22;5113615;28;20427;-60
2022/05/18 08:31:53;;;;;;;0.37;0.30;;;;;;;31.44;30.48;95007.91;5113332;28;20454;-59
2022/05/18 08:34:21;;;;;;;0.50;0.47;;;;;;;31.45;30.02;95014.97;5113345;28;20480;-60
2022/05/18 08:36:50;;;;;;;1.60;0.77;;;;;;;32.18;29.01;94993.22;5113319;28;20423;-59
2022/05/18 08:39:18;;;;;;;0.60;0.50;;;;;;;32.31;28.87;94996.19;5113300;28;20462;-59
2022/05/18 08:41:51;;;;;;;0.60;0.40;;;;;;;32.56;27.96;94991.84;5112350;28;20454;-59
2022/05/18 08:44:27;;;;;;;0.40;0.30;;;;;;;33.10;29.78;94986.97;5112990;28;20474;-59
2022/05/18 08:47:08;;;;;;;0.50;0.40;;;;;;;32.81;26.22;94987.91;5113271;28;20454;-58
2022/05/18 08:49:42;;;;;;;0.30;0.20;;;;;;;32.81;27.18;94990.66;5113210;28;20535;-58
2022/05/18 08:52:40;;;;;;;0.50;0.20;;;;;;;33.38;27.24;94980.16;5112540;28;20863;-58
2022/05/18 08:55:34;;;;;;;0.47;0.40;;;;;;;32.45;29.82;94987.72;5106264;28;20805;-58
2022/05/18 08:58:08;;;;;;;0.30;0.30;;;;;;;32.89;26.91;94975.59;5112756;28;20480;-58
2022/05/18 09:00:40;;;;;;;0.40;0.30;;;;;;;33.06;27.74;94978.06;5112708;28;20459;-58
2022/05/18 09:03:16;;;;;;;0.30;0.20;;;;;;;33.45;27.64;94977.25;5112823;28;20518;-58
2022/05/18 09:05:52;;;;;;;0.63;0.50;;;;;;;34.16;25.73;94984.75;5113106;28;20554;-57
2022/05/18 09:08:30;;;;;;;0.30;0.30;;;;;;;34.63;26.10;94982.47;5112636;28;20441;-57
2022/05/18 09:11:04;;;;;;;0.43;0.40;;;;;;;34.88;25.02;94988.13;5113082;28;20439;-57
2022/05/18 09:13:38;;;;;;;0.40;0.30;;;;;;;34.24;26.53;94982.63;5112814;27;20427;-57
2022/05/18 09:16:15;;;;;;;0.53;0.53;;;;;;;34.76;27.63;94999.06;5112236;28;20467;-57
2022/05/18 09:18:47;;;;;;;0.50;0.40;;;;;;;33.44;27.82;95008.69;5112483;28;20430;-57
2022/05/18 09:21:23;;;;;;;4.67;0.40;;;;;;;32.40;29.82;95016.41;5112130;28;20431;-57
2022/05/18 09:24:17;;;;;;;0.40;0.30;;;;;;;30.03;30.91;95031.09;5112508;28;20458;-54
2022/05/18 09:27:00;;;;;;;0.50;0.40;;;;;;;29.34;31.88;95048.16;5112195;28;21012;-54
2022/05/18 09:29:37;;;;;;;0.60;0.40;;;;;;;28.95;33.14;95050.97;5112259;28;20968;-56
2022/05/18 09:32:48;;;;;;;0.50;0.30;;;;;;;27.92;34.19;95043.88;5112620;28;20827;-57
2022/05/18 09:35:42;;;;;;;0.43;0.43;;;;;;;28.12;35.13;95050.56;5109321;28;21001;-55
2022/05/18 09:38:16;;;;;;;0.30;0.30;;;;;;;27.84;38.93;95082.38;5112813;28;20458;-55
2022/05/18 09:40:50;;;;;;;0.40;0.30;;;;;;;26.94;41.52;95091.22;5112228;28;20458;-54
2022/05/18 09:43:26;;;;;;;0.40;0.30;;;;;;;24.32;42.31;94915.84;5112052;28;20964;-55
2022/05/18 09:45:57;;;;;;;0.70;0.63;;;;;;;25.59;43.28;95106.59;5111902;28;20462;-54
2022/05/18 09:48:37;;;;;;;0.40;0.40;;;;;;;24.84;44.43;95099.38;5112163;28;20431;-55
2022/05/18 09:51:08;;;;;;;0.30;0.20;;;;;;;25.12;48.05;95118.72;5112110;28;20423;-55
2022/05/18 09:53:37;;;;;;;0.40;0.30;;;;;;;24.82;50.39;95119.84;5111930;28;20916;-55
2022/05/18 09:56:13;;;;;;;0.40;0.30;;;;;;;24.95;51.10;95127.41;5111306;28;20518;-55
2022/05/18 09:58:46;;;;;;;0.40;0.20;;;;;;;24.75;57.51;95114.25;5111855;28;20431;-54
2022/05/18 10:10:02;;;;;;;0.50;0.30;;;;;;;22.14;88.38;95037.47;5115816;28;20857;-54
2022/05/18 10:12:37;;;;;;;0.40;0.20;;;;;;;23.71;86.04;95162.28;5116235;28;20450;-54
2022/05/18 10:15:11;;;;;;;0.40;0.30;;;;;;;23.79;93.83;95161.31;5115736;28;21054;-55
2022/05/18 10:17:51;;;;;;;0.40;0.30;;;;;;;23.05;86.52;95000.16;5116571;28;20492;-55
2022/05/18 10:20:28;;;;;;;0.40;0.20;;;;;;;24.24;83.67;95174.19;5115785;28;20466;-55
2022/05/18 10:22:58;;;;;;;0.40;0.20;;;;;;;24.33;92.08;95176.66;5115636;28;20480;-54
2022/05/18 10:25:32;;;;;;;0.40;0.20;;;;;;;24.32;82.52;95175.88;5115471;28;20520;-54
2022/05/18 10:28:10;;;;;;;0.40;0.40;;;;;;;23.80;89.86;95154.75;5115912;28;20510;-54
2022/05/18 10:30:39;;;;;;;0.40;0.30;;;;;;;23.08;90.97;95182.50;5115628;28;20936;-54
2022/05/18 10:33:21;;;;;;;0.40;0.20;;;;;;;22.42;100.00;95144.59;5115694;28;20480;-54
2022/05/18 10:35:51;;;;;;;0.40;0.20;;;;;;;22.81;100.00;95200.41;5115601;28;20455;-54
2022/05/18 10:38:24;;;;;;;0.40;0.20;;;;;;;21.87;100.00;95156.28;5115332;28;20431;-54
2022/05/18 10:40:54;;;;;;;0.40;0.20;;;;;;;22.82;100.00;95218.19;5115410;28;20423;-54
2022/05/18 10:43:33;;;;;;;0.50;0.40;;;;;;;21.83;100.00;95236.31;5115340;28;20454;-54
2022/05/18 10:46:19;;;;;;;0.40;0.20;;;;;;;21.32;100.00;95259.44;5115442;28;20490;-54
2022/05/18 10:48:56;;;;;;;0.53;0.30;;;;;;;21.20;100.00;95252.13;5115532;28;20459;-54
2022/05/18 10:51:31;;;;;;;0.40;0.20;;;;;;;21.32;100.00;95249.44;5115223;28;20474;-54
2022/05/18 10:54:14;;;;;;;0.60;0.60;;;;;;;20.86;100.00;95264.13;5115317;28;20949;-54
2022/05/18 10:56:45;;;;;;;0.40;0.20;;;;;;;19.85;100.00;95270.16;5115297;28;20503;-54
2022/05/18 10:59:37;;;;;;;0.40;0.30;;;;;;;18.62;100.00;95290.19;5115169;28;20426;-54
2022/05/18 11:02:12;;;;;;;0.40;0.20;;;;;;;17.83;100.00;95161.09;5115124;28;20518;-55
2022/05/18 11:04:54;;;;;;;0.40;0.20;;;;;;;19.34;100.00;95314.25;5114966;28;20419;-55
2022/05/18 11:07:26;;;;;;;0.40;0.30;;;;;;;19.42;100.00;95316.16;5114983;28;20431;-55
2022/05/18 11:09:55;;;;;;;0.40;0.20;;;;;;;19.80;100.00;95318.75;5115034;28;20506;-56
2022/05/18 11:12:35;;;;;;;0.40;0.20;;;;;;;19.02;100.00;95253.09;5114453;28;20527;-56
2022/05/18 11:15:08;;;;;;;0.50;0.20;;;;;;;19.33;100.00;95315.34;5114979;28;20578;-56
2022/05/18 11:17:53;;;;;;;0.40;0.20;;;;;;;17.43;100.00;95116.84;5114950;28;20466;-56
2022/05/18 11:20:35;;;;;;;6.10;0.30;;;;;;;19.02;100.00;95304.91;5115210;28;20480;-56
2022/05/18 11:23:17;;;;;;;0.40;0.20;;;;;;;18.21;100.00;95134.34;5114904;28;20463;-56
2022/05/18 11:26:02;;;;;;;0.40;0.20;;;;;;;19.56;100.00;95292.50;5114694;28;20980;-55
2022/05/18 11:28:58;;;;;;;0.40;0.20;;;;;;;18.97;100.00;95254.03;5114391;28;20847;-55
2022/05/18 11:32:15;;;;;;;0.40;0.30;;;;;;;17.63;100.00;95157.16;5114736;28;20419;-56
2022/05/18 11:34:58;;;;;;;0.40;0.20;;;;;;;17.18;100.00;95128.34;5089830;28;20443;-55
2022/05/18 11:38:06;;;;;;;0.40;0.20;;;;;;;16.17;100.00;95083.06;5114501;28;20431;-55
2022/05/18 11:40:44;;;;;;;0.50;0.40;;;;;;;18.14;100.00;95285.03;5114431;28;20439;-55
2022/05/18 11:43:39;;;;;;;0.40;0.20;;;;;;;17.41;100.00;95232.34;5114696;28;21027;-55
2022/05/18 11:46:27;;;;;;;0.40;0.20;;;;;;;17.51;100.00;95248.09;5114076;28;20561;-56
2022/05/18 11:49:04;;;;;;;0.70;0.70;;;;;;;17.11;100.00;95183.16;5111539;28;20963;-56
2022/05/18 11:51:44;;;;;;;3.03;0.57;;;;;;;17.82;100.00;95231.91;5114376;28;20419;-56
2022/05/18 11:54:27;;;;;;;0.40;0.30;;;;;;;17.93;100.00;95238.53;5114518;28;20527;-56
2022/05/18 11:57:05;;;;;;;0.40;0.30;;;;;;;18.33;100.00;95272.09;5114378;28;20443;-56
2022/05/18 11:59:56;;;;;;;0.60;0.50;;;;;;;18.74;100.00;95268.84;5114965;28;20431;-56
2022/05/18 12:02:49;;;;;;;0.40;0.20;;;;;;;18.64;100.00;95177.13;5114297;28;20526;-55
2022/05/18 12:05:44;;;;;;;0.40;0.20;;;;;;;19.72;100.00;95262.34;5114344;28;20451;-55
2022/05/18 12:08:45;;;;;;;0.40;0.20;;;;;;;18.24;100.00;95091.56;5103463;28;20439;-55
2022/05/18 12:11:24;;;;;;;0.40;0.30;;;;;;;18.96;100.00;95257.06;5114154;28;20435;-56
2022/05/18 12:14:04;;;;;;;1.13;0.30;;;;;;;18.47;100.00;95239.72;5114997;28;20419;-55